sensor_id;sensor_type;location;lat;lon;timestamp;P1;durP1;ratioP1;P2;durP2;ratioP2
74510;SDS011;62991;50.040;18.400;2022-12-18T00:01:21;13.13;;;6.47;;
74510;SDS011;62991;50.040;18.400;2022-12-18T00:04:23;13.20;;;5.43;;
74510;SDS011;62991;50.040;18.400;2022-12-18T00:07:25;12.23;;;5.50;;
74510;SDS011;62991;50.040;18.400;2022-12-18T00:10:27;10.77;;;4.60;;
74510;SDS011;62991;50.040;18.400;2022-12-18T00:13:28;20.05;;;7.03;;
74510;SDS011;62991;50.040;18.400;2022-12-18T00:16:29;12.65;;;6.18;;
74510;SDS011;62991;50.040;18.400;2022-12-18T00:19:32;18.77;;;6.97;;
74510;SDS011;62991;50.040;18.400;2022-12-18T00:22:33;14.30;;;5.10;;
74510;SDS011;62991;50.040;18.400;2022-12-18T00:25:34;10.73;;;4.35;;
74510;SDS011;62991;50.040;18.400;2022-12-18T00:28:36;9.63;;;4.18;;
74510;SDS011;62991;50.040;18.400;2022-12-18T00:31:37;9.52;;;4.82;;
74510;SDS011;62991;50.040;18.400;2022-12-18T00:34:38;11.75;;;5.82;;
74510;SDS011;62991;50.040;18.400;2022-12-18T00:37:38;13.40;;;6.00;;
74510;SDS011;62991;50.040;18.400;2022-12-18T00:40:39;8.30;;;2.83;;
74510;SDS011;62991;50.040;18.400;2022-12-18T00:43:40;9.68;;;4.25;;
74510;SDS011;62991;50.040;18.400;2022-12-18T00:46:41;9.00;;;3.88;;
74510;SDS011;62991;50.040;18.400;2022-12-18T00:49:42;9.55;;;4.10;;
74510;SDS011;62991;50.040;18.400;2022-12-18T00:52:43;8.38;;;3.42;;
74510;SDS011;62991;50.040;18.400;2022-12-18T00:55:43;15.93;;;5.30;;
74510;SDS011;62991;50.040;18.400;2022-12-18T00:58:45;17.33;;;3.55;;
74510;SDS011;62991;50.040;18.400;2022-12-18T01:01:46;13.77;;;3.00;;
74510;SDS011;62991;50.040;18.400;2022-12-18T01:04:47;11.43;;;4.28;;
74510;SDS011;62991;50.040;18.400;2022-12-18T01:07:47;15.50;;;4.22;;
74510;SDS011;62991;50.040;18.400;2022-12-18T01:10:48;6.18;;;2.47;;
74510;SDS011;62991;50.040;18.400;2022-12-18T01:13:49;12.30;;;4.10;;
74510;SDS011;62991;50.040;18.400;2022-12-18T01:16:49;6.30;;;3.28;;
74510;SDS011;62991;50.040;18.400;2022-12-18T01:19:50;6.28;;;2.78;;
74510;SDS011;62991;50.040;18.400;2022-12-18T01:22:51;9.57;;;3.63;;
74510;SDS011;62991;50.040;18.400;2022-12-18T01:25:51;6.05;;;3.00;;
74510;SDS011;62991;50.040;18.400;2022-12-18T01:28:53;14.32;;;5.22;;
74510;SDS011;62991;50.040;18.400;2022-12-18T01:31:55;10.57;;;3.70;;
74510;SDS011;62991;50.040;18.400;2022-12-18T01:34:56;9.55;;;3.80;;
74510;SDS011;62991;50.040;18.400;2022-12-18T01:37:57;9.48;;;3.15;;
74510;SDS011;62991;50.040;18.400;2022-12-18T01:40:58;5.13;;;2.55;;
74510;SDS011;62991;50.040;18.400;2022-12-18T01:43:59;9.85;;;3.88;;
74510;SDS011;62991;50.040;18.400;2022-12-18T01:47:00;12.23;;;3.35;;
74510;SDS011;62991;50.040;18.400;2022-12-18T01:50:06;7.63;;;5.47;;
74510;SDS011;62991;50.040;18.400;2022-12-18T01:53:11;9.80;;;3.95;;
74510;SDS011;62991;50.040;18.400;2022-12-18T01:56:15;11.30;;;3.65;;
74510;SDS011;62991;50.040;18.400;2022-12-18T01:59:18;11.10;;;3.53;;
74510;SDS011;62991;50.040;18.400;2022-12-18T02:02:20;7.72;;;3.83;;
74510;SDS011;62991;50.040;18.400;2022-12-18T02:08:50;15.77;;;4.10;;
74510;SDS011;62991;50.040;18.400;2022-12-18T02:15:23;11.88;;;5.90;;
74510;SDS011;62991;50.040;18.400;2022-12-18T02:28:15;4.28;;;2.55;;
74510;SDS011;62991;50.040;18.400;2022-12-18T02:31:24;5.90;;;3.22;;
74510;SDS011;62991;50.040;18.400;2022-12-18T02:34:29;9.25;;;3.90;;
74510;SDS011;62991;50.040;18.400;2022-12-18T02:37:32;8.30;;;3.03;;
74510;SDS011;62991;50.040;18.400;2022-12-18T02:40:34;12.50;;;4.13;;
74510;SDS011;62991;50.040;18.400;2022-12-18T02:43:37;11.07;;;3.45;;
74510;SDS011;62991;50.040;18.400;2022-12-18T02:46:39;7.63;;;3.90;;
74510;SDS011;62991;50.040;18.400;2022-12-18T02:49:52;11.15;;;3.50;;
74510;SDS011;62991;50.040;18.400;2022-12-18T02:53:33;7.72;;;4.03;;
74510;SDS011;62991;50.040;18.400;2022-12-18T02:56:44;7.57;;;3.92;;
74510;SDS011;62991;50.040;18.400;2022-12-18T03:00:24;11.75;;;4.95;;
74510;SDS011;62991;50.040;18.400;2022-12-18T03:06:31;21.25;;;4.30;;
74510;SDS011;62991;50.040;18.400;2022-12-18T03:09:42;11.30;;;4.82;;
74510;SDS011;62991;50.040;18.400;2022-12-18T03:12:47;10.80;;;3.92;;
74510;SDS011;62991;50.040;18.400;2022-12-18T03:15:56;12.15;;;3.72;;
74510;SDS011;62991;50.040;18.400;2022-12-18T03:19:07;12.13;;;4.22;;
74510;SDS011;62991;50.040;18.400;2022-12-18T03:22:11;15.65;;;4.57;;
74510;SDS011;62991;50.040;18.400;2022-12-18T03:25:13;12.65;;;5.13;;
74510;SDS011;62991;50.040;18.400;2022-12-18T03:28:19;6.90;;;3.47;;
74510;SDS011;62991;50.040;18.400;2022-12-18T03:31:22;13.43;;;5.45;;
74510;SDS011;62991;50.040;18.400;2022-12-18T03:34:24;9.70;;;5.28;;
74510;SDS011;62991;50.040;18.400;2022-12-18T03:37:30;11.85;;;3.08;;
74510;SDS011;62991;50.040;18.400;2022-12-18T03:40:37;15.10;;;6.47;;
74510;SDS011;62991;50.040;18.400;2022-12-18T03:47:28;7.43;;;5.72;;
74510;SDS011;62991;50.040;18.400;2022-12-18T03:57:09;6.22;;;4.45;;
74510;SDS011;62991;50.040;18.400;2022-12-18T04:00:14;8.27;;;4.00;;
74510;SDS011;62991;50.040;18.400;2022-12-18T04:03:17;8.45;;;4.25;;
74510;SDS011;62991;50.040;18.400;2022-12-18T04:06:20;8.73;;;4.28;;
74510;SDS011;62991;50.040;18.400;2022-12-18T04:09:21;10.20;;;4.45;;
74510;SDS011;62991;50.040;18.400;2022-12-18T04:12:26;15.70;;;4.82;;
74510;SDS011;62991;50.040;18.400;2022-12-18T04:15:28;18.38;;;4.60;;
74510;SDS011;62991;50.040;18.400;2022-12-18T04:18:29;8.20;;;4.20;;
74510;SDS011;62991;50.040;18.400;2022-12-18T04:21:30;5.32;;;2.42;;
74510;SDS011;62991;50.040;18.400;2022-12-18T04:24:31;5.63;;;2.47;;
74510;SDS011;62991;50.040;18.400;2022-12-18T04:27:31;7.50;;;4.07;;
74510;SDS011;62991;50.040;18.400;2022-12-18T04:30:32;7.60;;;3.63;;
74510;SDS011;62991;50.040;18.400;2022-12-18T04:33:33;10.88;;;4.47;;
74510;SDS011;62991;50.040;18.400;2022-12-18T04:36:33;4.78;;;3.08;;
74510;SDS011;62991;50.040;18.400;2022-12-18T04:39:34;9.98;;;3.13;;
74510;SDS011;62991;50.040;18.400;2022-12-18T04:42:35;8.10;;;4.88;;
74510;SDS011;62991;50.040;18.400;2022-12-18T04:45:36;9.18;;;4.53;;
74510;SDS011;62991;50.040;18.400;2022-12-18T04:48:37;5.00;;;2.83;;
74510;SDS011;62991;50.040;18.400;2022-12-18T04:51:37;8.02;;;3.28;;
74510;SDS011;62991;50.040;18.400;2022-12-18T04:54:38;9.13;;;3.70;;
74510;SDS011;62991;50.040;18.400;2022-12-18T04:57:39;14.73;;;4.60;;
74510;SDS011;62991;50.040;18.400;2022-12-18T05:00:39;6.22;;;2.83;;
74510;SDS011;62991;50.040;18.400;2022-12-18T05:03:40;6.97;;;3.42;;
74510;SDS011;62991;50.040;18.400;2022-12-18T05:06:41;5.40;;;4.25;;
74510;SDS011;62991;50.040;18.400;2022-12-18T05:09:41;15.35;;;5.25;;
74510;SDS011;62991;50.040;18.400;2022-12-18T05:12:42;13.40;;;3.35;;
74510;SDS011;62991;50.040;18.400;2022-12-18T05:15:58;6.38;;;4.03;;
74510;SDS011;62991;50.040;18.400;2022-12-18T05:18:58;10.30;;;3.58;;
74510;SDS011;62991;50.040;18.400;2022-12-18T05:21:59;8.25;;;3.35;;
74510;SDS011;62991;50.040;18.400;2022-12-18T05:25:01;8.88;;;3.15;;
74510;SDS011;62991;50.040;18.400;2022-12-18T05:28:02;5.63;;;2.55;;
74510;SDS011;62991;50.040;18.400;2022-12-18T05:31:03;5.25;;;2.75;;
74510;SDS011;62991;50.040;18.400;2022-12-18T05:34:05;7.88;;;3.42;;
74510;SDS011;62991;50.040;18.400;2022-12-18T05:37:05;9.40;;;4.38;;
74510;SDS011;62991;50.040;18.400;2022-12-18T05:40:06;9.63;;;4.50;;
74510;SDS011;62991;50.040;18.400;2022-12-18T05:43:07;8.93;;;4.90;;
74510;SDS011;62991;50.040;18.400;2022-12-18T05:46:10;11.70;;;4.22;;
74510;SDS011;62991;50.040;18.400;2022-12-18T05:49:13;5.10;;;2.75;;
74510;SDS011;62991;50.040;18.400;2022-12-18T05:52:14;9.90;;;3.45;;
74510;SDS011;62991;50.040;18.400;2022-12-18T05:55:15;27.77;;;5.13;;
74510;SDS011;62991;50.040;18.400;2022-12-18T05:58:15;16.25;;;4.43;;
74510;SDS011;62991;50.040;18.400;2022-12-18T06:01:17;30.65;;;8.98;;
74510;SDS011;62991;50.040;18.400;2022-12-18T06:04:20;18.63;;;8.43;;
74510;SDS011;62991;50.040;18.400;2022-12-18T06:07:21;22.92;;;9.50;;
74510;SDS011;62991;50.040;18.400;2022-12-18T06:10:21;22.33;;;8.90;;
74510;SDS011;62991;50.040;18.400;2022-12-18T06:13:22;23.35;;;9.00;;
74510;SDS011;62991;50.040;18.400;2022-12-18T06:16:23;16.80;;;6.40;;
74510;SDS011;62991;50.040;18.400;2022-12-18T06:19:23;17.98;;;6.93;;
74510;SDS011;62991;50.040;18.400;2022-12-18T06:22:24;7.70;;;3.90;;
74510;SDS011;62991;50.040;18.400;2022-12-18T06:25:25;13.35;;;5.90;;
74510;SDS011;62991;50.040;18.400;2022-12-18T06:28:26;26.50;;;6.38;;
74510;SDS011;62991;50.040;18.400;2022-12-18T06:31:26;17.42;;;5.18;;
74510;SDS011;62991;50.040;18.400;2022-12-18T06:34:27;10.40;;;5.50;;
74510;SDS011;62991;50.040;18.400;2022-12-18T06:37:28;10.52;;;5.45;;
74510;SDS011;62991;50.040;18.400;2022-12-18T06:40:30;12.57;;;4.60;;
74510;SDS011;62991;50.040;18.400;2022-12-18T06:43:31;9.77;;;4.68;;
74510;SDS011;62991;50.040;18.400;2022-12-18T06:46:31;17.33;;;5.80;;
74510;SDS011;62991;50.040;18.400;2022-12-18T06:49:32;13.85;;;8.40;;
74510;SDS011;62991;50.040;18.400;2022-12-18T06:52:33;16.55;;;6.90;;
74510;SDS011;62991;50.040;18.400;2022-12-18T06:55:33;19.58;;;5.22;;
74510;SDS011;62991;50.040;18.400;2022-12-18T06:58:34;11.70;;;3.70;;
74510;SDS011;62991;50.040;18.400;2022-12-18T07:01:35;29.00;;;9.43;;
74510;SDS011;62991;50.040;18.400;2022-12-18T07:04:35;22.73;;;8.23;;
74510;SDS011;62991;50.040;18.400;2022-12-18T07:07:36;22.83;;;7.18;;
74510;SDS011;62991;50.040;18.400;2022-12-18T07:10:41;9.13;;;4.90;;
74510;SDS011;62991;50.040;18.400;2022-12-18T07:16:43;6.15;;;3.55;;
74510;SDS011;62991;50.040;18.400;2022-12-18T07:19:44;6.20;;;4.22;;
74510;SDS011;62991;50.040;18.400;2022-12-18T07:22:45;5.93;;;2.70;;
74510;SDS011;62991;50.040;18.400;2022-12-18T07:25:45;15.30;;;4.45;;
74510;SDS011;62991;50.040;18.400;2022-12-18T07:28:46;5.10;;;2.90;;
74510;SDS011;62991;50.040;18.400;2022-12-18T07:31:47;17.48;;;4.72;;
74510;SDS011;62991;50.040;18.400;2022-12-18T07:34:48;11.68;;;3.80;;
74510;SDS011;62991;50.040;18.400;2022-12-18T07:37:48;8.70;;;4.38;;
74510;SDS011;62991;50.040;18.400;2022-12-18T07:40:49;22.02;;;7.00;;
74510;SDS011;62991;50.040;18.400;2022-12-18T07:43:49;17.45;;;7.50;;
74510;SDS011;62991;50.040;18.400;2022-12-18T07:46:50;21.40;;;6.78;;
74510;SDS011;62991;50.040;18.400;2022-12-18T07:49:51;24.98;;;8.93;;
74510;SDS011;62991;50.040;18.400;2022-12-18T07:52:51;15.27;;;7.75;;
74510;SDS011;62991;50.040;18.400;2022-12-18T07:56:03;16.35;;;7.78;;
74510;SDS011;62991;50.040;18.400;2022-12-18T07:59:08;19.35;;;7.78;;
74510;SDS011;62991;50.040;18.400;2022-12-18T08:02:09;17.38;;;6.55;;
74510;SDS011;62991;50.040;18.400;2022-12-18T08:05:09;15.82;;;8.48;;
74510;SDS011;62991;50.040;18.400;2022-12-18T08:08:10;15.90;;;7.13;;
74510;SDS011;62991;50.040;18.400;2022-12-18T08:11:11;28.08;;;8.77;;
74510;SDS011;62991;50.040;18.400;2022-12-18T08:14:12;25.30;;;9.68;;
74510;SDS011;62991;50.040;18.400;2022-12-18T08:17:12;19.73;;;6.10;;
74510;SDS011;62991;50.040;18.400;2022-12-18T08:20:13;16.70;;;7.07;;
74510;SDS011;62991;50.040;18.400;2022-12-18T08:23:14;16.63;;;8.25;;
74510;SDS011;62991;50.040;18.400;2022-12-18T08:26:15;20.38;;;8.38;;
74510;SDS011;62991;50.040;18.400;2022-12-18T08:29:16;23.50;;;7.68;;
74510;SDS011;62991;50.040;18.400;2022-12-18T08:32:17;18.55;;;6.80;;
74510;SDS011;62991;50.040;18.400;2022-12-18T08:35:17;19.65;;;5.55;;
74510;SDS011;62991;50.040;18.400;2022-12-18T08:38:18;21.45;;;4.80;;
74510;SDS011;62991;50.040;18.400;2022-12-18T08:41:19;14.43;;;5.68;;
74510;SDS011;62991;50.040;18.400;2022-12-18T08:44:20;20.88;;;7.78;;
74510;SDS011;62991;50.040;18.400;2022-12-18T08:47:39;20.70;;;9.27;;
74510;SDS011;62991;50.040;18.400;2022-12-18T08:50:40;21.20;;;6.97;;
74510;SDS011;62991;50.040;18.400;2022-12-18T08:53:41;25.30;;;11.63;;
74510;SDS011;62991;50.040;18.400;2022-12-18T08:56:42;13.82;;;5.13;;
74510;SDS011;62991;50.040;18.400;2022-12-18T08:59:43;21.00;;;5.28;;
74510;SDS011;62991;50.040;18.400;2022-12-18T09:02:43;10.95;;;3.78;;
74510;SDS011;62991;50.040;18.400;2022-12-18T09:05:47;13.05;;;6.13;;
74510;SDS011;62991;50.040;18.400;2022-12-18T09:08:48;15.80;;;6.30;;
74510;SDS011;62991;50.040;18.400;2022-12-18T09:11:49;16.08;;;4.57;;
74510;SDS011;62991;50.040;18.400;2022-12-18T09:14:49;19.85;;;4.65;;
74510;SDS011;62991;50.040;18.400;2022-12-18T09:17:50;10.88;;;7.00;;
74510;SDS011;62991;50.040;18.400;2022-12-18T09:20:52;9.23;;;5.75;;
74510;SDS011;62991;50.040;18.400;2022-12-18T09:23:54;18.00;;;6.70;;
74510;SDS011;62991;50.040;18.400;2022-12-18T09:26:55;18.45;;;8.35;;
74510;SDS011;62991;50.040;18.400;2022-12-18T09:29:56;16.38;;;4.90;;
74510;SDS011;62991;50.040;18.400;2022-12-18T09:32:56;29.65;;;8.98;;
74510;SDS011;62991;50.040;18.400;2022-12-18T09:35:57;40.08;;;17.55;;
74510;SDS011;62991;50.040;18.400;2022-12-18T09:39:00;12.00;;;4.22;;
74510;SDS011;62991;50.040;18.400;2022-12-18T09:42:01;18.00;;;6.57;;
74510;SDS011;62991;50.040;18.400;2022-12-18T09:45:02;19.88;;;5.72;;
74510;SDS011;62991;50.040;18.400;2022-12-18T09:48:03;11.73;;;5.18;;
74510;SDS011;62991;50.040;18.400;2022-12-18T09:51:13;11.23;;;5.60;;
74510;SDS011;62991;50.040;18.400;2022-12-18T09:54:23;22.80;;;12.18;;
74510;SDS011;62991;50.040;18.400;2022-12-18T09:57:30;16.10;;;7.32;;
74510;SDS011;62991;50.040;18.400;2022-12-18T10:00:37;11.27;;;6.53;;
74510;SDS011;62991;50.040;18.400;2022-12-18T10:03:38;15.60;;;6.10;;
74510;SDS011;62991;50.040;18.400;2022-12-18T10:06:49;21.98;;;6.07;;
74510;SDS011;62991;50.040;18.400;2022-12-18T10:10:31;20.80;;;5.20;;
74510;SDS011;62991;50.040;18.400;2022-12-18T10:26:55;10.07;;;4.78;;
74510;SDS011;62991;50.040;18.400;2022-12-18T10:30:15;23.08;;;6.10;;
74510;SDS011;62991;50.040;18.400;2022-12-18T10:33:19;8.95;;;5.43;;
74510;SDS011;62991;50.040;18.400;2022-12-18T10:36:23;27.30;;;7.22;;
74510;SDS011;62991;50.040;18.400;2022-12-18T10:39:24;14.75;;;6.72;;
74510;SDS011;62991;50.040;18.400;2022-12-18T10:42:26;20.33;;;9.15;;
74510;SDS011;62991;50.040;18.400;2022-12-18T10:45:27;24.83;;;6.32;;
74510;SDS011;62991;50.040;18.400;2022-12-18T10:48:28;17.60;;;6.60;;
74510;SDS011;62991;50.040;18.400;2022-12-18T10:51:32;11.38;;;4.60;;
74510;SDS011;62991;50.040;18.400;2022-12-18T10:54:34;24.67;;;8.30;;
74510;SDS011;62991;50.040;18.400;2022-12-18T10:57:39;17.98;;;8.38;;
74510;SDS011;62991;50.040;18.400;2022-12-18T11:00:41;5.72;;;3.58;;
74510;SDS011;62991;50.040;18.400;2022-12-18T11:03:43;22.92;;;9.90;;
74510;SDS011;62991;50.040;18.400;2022-12-18T11:06:59;24.23;;;10.05;;
74510;SDS011;62991;50.040;18.400;2022-12-18T11:10:00;21.52;;;8.43;;
74510;SDS011;62991;50.040;18.400;2022-12-18T11:13:23;16.67;;;6.30;;
74510;SDS011;62991;50.040;18.400;2022-12-18T11:16:26;17.83;;;7.78;;
74510;SDS011;62991;50.040;18.400;2022-12-18T11:19:38;21.75;;;6.80;;
74510;SDS011;62991;50.040;18.400;2022-12-18T11:22:40;33.40;;;12.45;;
74510;SDS011;62991;50.040;18.400;2022-12-18T11:25:41;19.90;;;8.38;;
74510;SDS011;62991;50.040;18.400;2022-12-18T11:29:09;35.15;;;12.05;;
74510;SDS011;62991;50.040;18.400;2022-12-18T11:32:38;30.83;;;12.25;;
74510;SDS011;62991;50.040;18.400;2022-12-18T11:35:53;32.15;;;12.88;;
74510;SDS011;62991;50.040;18.400;2022-12-18T11:38:59;36.53;;;13.90;;
74510;SDS011;62991;50.040;18.400;2022-12-18T11:42:09;110.60;;;34.90;;
74510;SDS011;62991;50.040;18.400;2022-12-18T11:48:28;52.10;;;19.85;;
74510;SDS011;62991;50.040;18.400;2022-12-18T11:51:48;37.58;;;12.02;;
74510;SDS011;62991;50.040;18.400;2022-12-18T11:55:16;28.02;;;11.18;;
74510;SDS011;62991;50.040;18.400;2022-12-18T12:08:21;32.97;;;12.07;;
74510;SDS011;62991;50.040;18.400;2022-12-18T12:38:48;48.92;;;15.95;;
74510;SDS011;62991;50.040;18.400;2022-12-18T12:41:59;40.47;;;14.63;;
74510;SDS011;62991;50.040;18.400;2022-12-18T12:45:43;60.33;;;17.73;;
74510;SDS011;62991;50.040;18.400;2022-12-18T12:48:58;42.60;;;15.77;;
74510;SDS011;62991;50.040;18.400;2022-12-18T12:52:06;56.03;;;19.20;;
74510;SDS011;62991;50.040;18.400;2022-12-18T12:58:34;56.42;;;17.05;;
74510;SDS011;62991;50.040;18.400;2022-12-18T13:01:59;60.75;;;19.55;;
74510;SDS011;62991;50.040;18.400;2022-12-18T13:05:23;57.95;;;20.35;;
74510;SDS011;62991;50.040;18.400;2022-12-18T13:08:32;54.88;;;22.45;;
74510;SDS011;62991;50.040;18.400;2022-12-18T13:11:51;56.22;;;19.00;;
74510;SDS011;62991;50.040;18.400;2022-12-18T13:15:19;44.28;;;15.85;;
74510;SDS011;62991;50.040;18.400;2022-12-18T13:18:22;51.22;;;16.00;;
74510;SDS011;62991;50.040;18.400;2022-12-18T13:21:26;33.88;;;13.00;;
74510;SDS011;62991;50.040;18.400;2022-12-18T13:24:30;36.72;;;12.82;;
74510;SDS011;62991;50.040;18.400;2022-12-18T13:30:55;40.72;;;13.48;;
74510;SDS011;62991;50.040;18.400;2022-12-18T13:46:46;23.00;;;7.75;;
74510;SDS011;62991;50.040;18.400;2022-12-18T13:49:48;28.25;;;7.72;;
74510;SDS011;62991;50.040;18.400;2022-12-18T13:52:49;25.90;;;7.43;;
74510;SDS011;62991;50.040;18.400;2022-12-18T13:55:52;18.00;;;6.78;;
74510;SDS011;62991;50.040;18.400;2022-12-18T14:02:16;21.48;;;7.13;;
74510;SDS011;62991;50.040;18.400;2022-12-18T14:05:51;48.40;;;15.63;;
74510;SDS011;62991;50.040;18.400;2022-12-18T14:11:48;80.10;;;32.17;;
74510;SDS011;62991;50.040;18.400;2022-12-18T14:14:50;139.88;;;54.28;;
74510;SDS011;62991;50.040;18.400;2022-12-18T14:17:53;98.72;;;42.85;;
74510;SDS011;62991;50.040;18.400;2022-12-18T14:20:58;60.45;;;21.77;;
74510;SDS011;62991;50.040;18.400;2022-12-18T14:24:12;86.75;;;32.20;;
74510;SDS011;62991;50.040;18.400;2022-12-18T14:27:20;65.00;;;22.50;;
74510;SDS011;62991;50.040;18.400;2022-12-18T14:30:24;37.50;;;16.13;;
74510;SDS011;62991;50.040;18.400;2022-12-18T14:33:27;45.78;;;15.93;;
74510;SDS011;62991;50.040;18.400;2022-12-18T14:36:28;47.97;;;14.95;;
74510;SDS011;62991;50.040;18.400;2022-12-18T14:39:29;38.58;;;15.13;;
74510;SDS011;62991;50.040;18.400;2022-12-18T14:42:30;33.22;;;15.02;;
74510;SDS011;62991;50.040;18.400;2022-12-18T14:48:40;31.83;;;13.32;;
74510;SDS011;62991;50.040;18.400;2022-12-18T14:51:42;30.55;;;11.77;;
74510;SDS011;62991;50.040;18.400;2022-12-18T14:54:54;31.13;;;12.40;;
74510;SDS011;62991;50.040;18.400;2022-12-18T14:57:55;39.80;;;14.52;;
74510;SDS011;62991;50.040;18.400;2022-12-18T15:00:57;41.58;;;17.20;;
74510;SDS011;62991;50.040;18.400;2022-12-18T15:03:58;45.28;;;14.52;;
74510;SDS011;62991;50.040;18.400;2022-12-18T15:07:16;24.67;;;9.40;;
74510;SDS011;62991;50.040;18.400;2022-12-18T15:10:20;28.65;;;8.82;;
74510;SDS011;62991;50.040;18.400;2022-12-18T15:13:23;27.58;;;10.00;;
74510;SDS011;62991;50.040;18.400;2022-12-18T15:16:24;22.73;;;6.97;;
74510;SDS011;62991;50.040;18.400;2022-12-18T15:19:37;24.27;;;9.15;;
74510;SDS011;62991;50.040;18.400;2022-12-18T15:22:40;23.13;;;10.60;;
74510;SDS011;62991;50.040;18.400;2022-12-18T15:25:41;42.28;;;16.95;;
74510;SDS011;62991;50.040;18.400;2022-12-18T15:28:51;57.25;;;23.50;;
74510;SDS011;62991;50.040;18.400;2022-12-18T15:32:02;58.25;;;21.30;;
74510;SDS011;62991;50.040;18.400;2022-12-18T15:38:11;64.05;;;23.35;;
74510;SDS011;62991;50.040;18.400;2022-12-18T15:41:15;83.35;;;36.05;;
74510;SDS011;62991;50.040;18.400;2022-12-18T15:44:24;72.07;;;28.92;;
74510;SDS011;62991;50.040;18.400;2022-12-18T15:47:25;45.42;;;19.05;;
74510;SDS011;62991;50.040;18.400;2022-12-18T15:50:26;50.05;;;22.17;;
74510;SDS011;62991;50.040;18.400;2022-12-18T15:53:32;45.60;;;19.52;;
74510;SDS011;62991;50.040;18.400;2022-12-18T15:56:33;39.78;;;16.17;;
74510;SDS011;62991;50.040;18.400;2022-12-18T15:59:53;48.42;;;21.17;;
74510;SDS011;62991;50.040;18.400;2022-12-18T16:02:57;81.70;;;36.33;;
74510;SDS011;62991;50.040;18.400;2022-12-18T16:05:58;78.53;;;36.10;;
74510;SDS011;62991;50.040;18.400;2022-12-18T16:09:01;32.53;;;13.20;;
74510;SDS011;62991;50.040;18.400;2022-12-18T16:12:02;30.95;;;12.98;;
74510;SDS011;62991;50.040;18.400;2022-12-18T16:15:04;29.83;;;12.63;;
74510;SDS011;62991;50.040;18.400;2022-12-18T16:18:05;34.40;;;11.40;;
74510;SDS011;62991;50.040;18.400;2022-12-18T16:21:07;33.47;;;13.50;;
74510;SDS011;62991;50.040;18.400;2022-12-18T16:24:15;27.08;;;11.50;;
74510;SDS011;62991;50.040;18.400;2022-12-18T16:27:17;23.05;;;8.65;;
74510;SDS011;62991;50.040;18.400;2022-12-18T16:30:20;16.38;;;7.20;;
74510;SDS011;62991;50.040;18.400;2022-12-18T16:33:26;22.90;;;8.32;;
74510;SDS011;62991;50.040;18.400;2022-12-18T16:36:26;18.95;;;8.45;;
74510;SDS011;62991;50.040;18.400;2022-12-18T16:39:27;21.70;;;8.57;;
74510;SDS011;62991;50.040;18.400;2022-12-18T16:42:30;16.50;;;9.85;;
74510;SDS011;62991;50.040;18.400;2022-12-18T16:45:32;21.08;;;7.43;;
74510;SDS011;62991;50.040;18.400;2022-12-18T16:48:33;24.55;;;11.50;;
74510;SDS011;62991;50.040;18.400;2022-12-18T16:51:33;18.17;;;8.00;;
74510;SDS011;62991;50.040;18.400;2022-12-18T16:54:34;15.60;;;7.93;;
74510;SDS011;62991;50.040;18.400;2022-12-18T16:57:35;31.23;;;11.00;;
74510;SDS011;62991;50.040;18.400;2022-12-18T17:00:37;39.75;;;15.75;;
74510;SDS011;62991;50.040;18.400;2022-12-18T17:03:38;47.13;;;17.50;;
74510;SDS011;62991;50.040;18.400;2022-12-18T17:06:39;42.47;;;19.60;;
74510;SDS011;62991;50.040;18.400;2022-12-18T17:09:44;45.85;;;20.42;;
74510;SDS011;62991;50.040;18.400;2022-12-18T17:12:45;82.78;;;27.75;;
74510;SDS011;62991;50.040;18.400;2022-12-18T17:15:45;55.80;;;19.10;;
74510;SDS011;62991;50.040;18.400;2022-12-18T17:18:46;53.83;;;21.42;;
74510;SDS011;62991;50.040;18.400;2022-12-18T17:21:47;55.95;;;19.25;;
74510;SDS011;62991;50.040;18.400;2022-12-18T17:24:49;38.03;;;18.02;;
74510;SDS011;62991;50.040;18.400;2022-12-18T17:27:50;50.83;;;18.20;;
74510;SDS011;62991;50.040;18.400;2022-12-18T17:30:51;40.50;;;16.63;;
74510;SDS011;62991;50.040;18.400;2022-12-18T17:33:53;41.22;;;16.17;;
74510;SDS011;62991;50.040;18.400;2022-12-18T17:36:54;37.97;;;17.35;;
74510;SDS011;62991;50.040;18.400;2022-12-18T17:39:54;36.35;;;15.77;;
74510;SDS011;62991;50.040;18.400;2022-12-18T17:42:55;33.85;;;11.75;;
74510;SDS011;62991;50.040;18.400;2022-12-18T17:46:00;28.70;;;12.90;;
74510;SDS011;62991;50.040;18.400;2022-12-18T17:49:02;19.73;;;10.73;;
74510;SDS011;62991;50.040;18.400;2022-12-18T17:52:03;23.83;;;13.10;;
74510;SDS011;62991;50.040;18.400;2022-12-18T17:55:04;32.10;;;11.80;;
74510;SDS011;62991;50.040;18.400;2022-12-18T17:58:05;23.02;;;8.50;;
74510;SDS011;62991;50.040;18.400;2022-12-18T18:01:06;21.30;;;9.88;;
74510;SDS011;62991;50.040;18.400;2022-12-18T18:04:08;26.83;;;9.02;;
74510;SDS011;62991;50.040;18.400;2022-12-18T18:07:09;26.30;;;8.52;;
74510;SDS011;62991;50.040;18.400;2022-12-18T18:10:09;24.42;;;9.88;;
74510;SDS011;62991;50.040;18.400;2022-12-18T18:13:16;51.08;;;19.50;;
74510;SDS011;62991;50.040;18.400;2022-12-18T18:16:39;49.58;;;23.13;;
74510;SDS011;62991;50.040;18.400;2022-12-18T18:19:42;105.70;;;39.15;;
74510;SDS011;62991;50.040;18.400;2022-12-18T18:22:42;149.05;;;60.45;;
74510;SDS011;62991;50.040;18.400;2022-12-18T18:25:43;163.45;;;69.50;;
74510;SDS011;62991;50.040;18.400;2022-12-18T18:28:44;111.30;;;47.55;;
74510;SDS011;62991;50.040;18.400;2022-12-18T18:31:44;83.07;;;38.38;;
74510;SDS011;62991;50.040;18.400;2022-12-18T18:34:45;48.63;;;25.10;;
74510;SDS011;62991;50.040;18.400;2022-12-18T18:37:49;35.90;;;15.20;;
74510;SDS011;62991;50.040;18.400;2022-12-18T18:41:02;22.90;;;12.07;;
74510;SDS011;62991;50.040;18.400;2022-12-18T18:44:04;36.33;;;13.48;;
74510;SDS011;62991;50.040;18.400;2022-12-18T18:47:05;30.80;;;14.75;;
74510;SDS011;62991;50.040;18.400;2022-12-18T18:50:06;19.00;;;10.40;;
74510;SDS011;62991;50.040;18.400;2022-12-18T18:53:07;26.70;;;14.95;;
74510;SDS011;62991;50.040;18.400;2022-12-18T18:56:09;33.03;;;13.75;;
74510;SDS011;62991;50.040;18.400;2022-12-18T18:59:11;22.42;;;11.27;;
74510;SDS011;62991;50.040;18.400;2022-12-18T19:02:12;24.67;;;10.93;;
74510;SDS011;62991;50.040;18.400;2022-12-18T19:05:15;35.47;;;14.10;;
74510;SDS011;62991;50.040;18.400;2022-12-18T19:08:15;34.90;;;14.98;;
74510;SDS011;62991;50.040;18.400;2022-12-18T19:11:16;25.15;;;13.00;;
74510;SDS011;62991;50.040;18.400;2022-12-18T19:14:35;33.53;;;14.55;;
74510;SDS011;62991;50.040;18.400;2022-12-18T19:17:36;37.45;;;15.60;;
74510;SDS011;62991;50.040;18.400;2022-12-18T19:20:37;51.63;;;22.92;;
74510;SDS011;62991;50.040;18.400;2022-12-18T19:23:37;84.07;;;27.88;;
74510;SDS011;62991;50.040;18.400;2022-12-18T19:26:38;74.68;;;26.05;;
74510;SDS011;62991;50.040;18.400;2022-12-18T19:29:39;54.05;;;23.42;;
74510;SDS011;62991;50.040;18.400;2022-12-18T19:32:39;40.55;;;18.73;;
74510;SDS011;62991;50.040;18.400;2022-12-18T19:35:40;56.45;;;19.80;;
74510;SDS011;62991;50.040;18.400;2022-12-18T19:38:41;44.13;;;16.80;;
74510;SDS011;62991;50.040;18.400;2022-12-18T19:41:42;36.08;;;15.90;;
74510;SDS011;62991;50.040;18.400;2022-12-18T19:44:43;37.53;;;16.38;;
74510;SDS011;62991;50.040;18.400;2022-12-18T19:47:44;40.15;;;16.60;;
74510;SDS011;62991;50.040;18.400;2022-12-18T19:50:45;28.70;;;12.25;;